sensor_id;sensor_type;location;lat;lon;timestamp;P1;durP1;ratioP1;P2;durP2;ratioP2
4244;SDS011;2136;48.502;9.194;2024-03-22T00:01:58;14.47;;;10.47;;
4244;SDS011;2136;48.502;9.194;2024-03-22T00:04:25;15.77;;;10.87;;
4244;SDS011;2136;48.502;9.194;2024-03-22T00:06:52;21.00;;;10.90;;
4244;SDS011;2136;48.502;9.194;2024-03-22T00:09:18;17.63;;;9.93;;
4244;SDS011;2136;48.502;9.194;2024-03-22T00:11:44;12.60;;;9.70;;
4244;SDS011;2136;48.502;9.194;2024-03-22T00:14:10;12.57;;;9.87;;
4244;SDS011;2136;48.502;9.194;2024-03-22T00:16:38;12.73;;;9.80;;
4244;SDS011;2136;48.502;9.194;2024-03-22T00:19:05;12.80;;;9.17;;
4244;SDS011;2136;48.502;9.194;2024-03-22T00:21:32;12.63;;;10.30;;
4244;SDS011;2136;48.502;9.194;2024-03-22T00:23:58;10.67;;;9.50;;
4244;SDS011;2136;48.502;9.194;2024-03-22T00:26:26;14.63;;;9.97;;
4244;SDS011;2136;48.502;9.194;2024-03-22T00:28:52;13.30;;;10.00;;
4244;SDS011;2136;48.502;9.194;2024-03-22T00:31:18;12.27;;;9.33;;
4244;SDS011;2136;48.502;9.194;2024-03-22T00:33:44;11.80;;;10.13;;
4244;SDS011;2136;48.502;9.194;2024-03-22T00:36:12;12.23;;;10.07;;
4244;SDS011;2136;48.502;9.194;2024-03-22T00:38:38;12.37;;;9.63;;
4244;SDS011;2136;48.502;9.194;2024-03-22T00:41:05;14.13;;;10.47;;
4244;SDS011;2136;48.502;9.194;2024-03-22T00:43:31;13.50;;;10.10;;
4244;SDS011;2136;48.502;9.194;2024-03-22T00:45:58;13.23;;;10.60;;
4244;SDS011;2136;48.502;9.194;2024-03-22T00:48:25;14.03;;;10.47;;
4244;SDS011;2136;48.502;9.194;2024-03-22T00:50:52;14.87;;;11.00;;
4244;SDS011;2136;48.502;9.194;2024-03-22T00:53:19;19.43;;;12.23;;
4244;SDS011;2136;48.502;9.194;2024-03-22T00:55:46;12.83;;;10.47;;
4244;SDS011;2136;48.502;9.194;2024-03-22T00:58:16;14.73;;;11.20;;
4244;SDS011;2136;48.502;9.194;2024-03-22T01:00:43;21.13;;;12.93;;
4244;SDS011;2136;48.502;9.194;2024-03-22T01:03:09;17.17;;;11.70;;
4244;SDS011;2136;48.502;9.194;2024-03-22T01:05:36;17.07;;;12.53;;
4244;SDS011;2136;48.502;9.194;2024-03-22T01:08:02;15.67;;;10.90;;
4244;SDS011;2136;48.502;9.194;2024-03-22T01:10:32;14.80;;;10.40;;
4244;SDS011;2136;48.502;9.194;2024-03-22T01:12:58;16.87;;;10.50;;
4244;SDS011;2136;48.502;9.194;2024-03-22T01:15:25;17.23;;;11.73;;
4244;SDS011;2136;48.502;9.194;2024-03-22T01:17:52;19.50;;;10.00;;
4244;SDS011;2136;48.502;9.194;2024-03-22T01:20:19;12.97;;;9.50;;
4244;SDS011;2136;48.502;9.194;2024-03-22T01:22:45;14.13;;;9.77;;
4244;SDS011;2136;48.502;9.194;2024-03-22T01:25:12;12.20;;;8.90;;
4244;SDS011;2136;48.502;9.194;2024-03-22T01:27:39;11.27;;;8.90;;
4244;SDS011;2136;48.502;9.194;2024-03-22T01:30:06;17.87;;;10.00;;
4244;SDS011;2136;48.502;9.194;2024-03-22T01:32:33;15.03;;;10.23;;
4244;SDS011;2136;48.502;9.194;2024-03-22T01:35:00;20.93;;;10.27;;
4244;SDS011;2136;48.502;9.194;2024-03-22T01:37:26;14.47;;;9.70;;
4244;SDS011;2136;48.502;9.194;2024-03-22T01:39:53;13.03;;;7.53;;
4244;SDS011;2136;48.502;9.194;2024-03-22T01:42:19;10.20;;;8.17;;
4244;SDS011;2136;48.502;9.194;2024-03-22T01:44:48;12.40;;;7.97;;
4244;SDS011;2136;48.502;9.194;2024-03-22T01:47:14;11.30;;;8.20;;
4244;SDS011;2136;48.502;9.194;2024-03-22T01:49:42;12.27;;;8.10;;
4244;SDS011;2136;48.502;9.194;2024-03-22T01:52:08;18.73;;;9.83;;
4244;SDS011;2136;48.502;9.194;2024-03-22T01:54:35;15.30;;;9.57;;
4244;SDS011;2136;48.502;9.194;2024-03-22T01:57:00;11.17;;;7.60;;
4244;SDS011;2136;48.502;9.194;2024-03-22T01:59:28;13.40;;;7.20;;
4244;SDS011;2136;48.502;9.194;2024-03-22T02:01:55;9.03;;;8.13;;
4244;SDS011;2136;48.502;9.194;2024-03-22T02:04:22;13.10;;;7.70;;
4244;SDS011;2136;48.502;9.194;2024-03-22T02:06:48;12.63;;;8.00;;
4244;SDS011;2136;48.502;9.194;2024-03-22T02:09:14;12.07;;;9.07;;
4244;SDS011;2136;48.502;9.194;2024-03-22T02:11:42;10.10;;;7.53;;
4244;SDS011;2136;48.502;9.194;2024-03-22T02:14:09;12.23;;;8.87;;
4244;SDS011;2136;48.502;9.194;2024-03-22T02:16:35;13.53;;;8.47;;
4244;SDS011;2136;48.502;9.194;2024-03-22T02:19:03;12.43;;;8.80;;
4244;SDS011;2136;48.502;9.194;2024-03-22T02:21:29;13.37;;;8.77;;
4244;SDS011;2136;48.502;9.194;2024-03-22T02:23:57;13.00;;;8.93;;
4244;SDS011;2136;48.502;9.194;2024-03-22T02:26:23;12.00;;;8.10;;
4244;SDS011;2136;48.502;9.194;2024-03-22T02:28:49;10.60;;;8.00;;
4244;SDS011;2136;48.502;9.194;2024-03-22T02:31:15;11.67;;;8.13;;
4244;SDS011;2136;48.502;9.194;2024-03-22T02:33:42;10.80;;;7.97;;
4244;SDS011;2136;48.502;9.194;2024-03-22T02:36:08;14.03;;;8.83;;
4244;SDS011;2136;48.502;9.194;2024-03-22T02:38:35;9.13;;;7.07;;
4244;SDS011;2136;48.502;9.194;2024-03-22T02:41:02;8.73;;;7.27;;
4244;SDS011;2136;48.502;9.194;2024-03-22T02:43:29;12.10;;;8.20;;
4244;SDS011;2136;48.502;9.194;2024-03-22T02:45:55;10.53;;;7.80;;
4244;SDS011;2136;48.502;9.194;2024-03-22T02:48:22;14.67;;;7.70;;
4244;SDS011;2136;48.502;9.194;2024-03-22T02:50:48;10.53;;;8.13;;
4244;SDS011;2136;48.502;9.194;2024-03-22T02:53:14;9.50;;;7.47;;
4244;SDS011;2136;48.502;9.194;2024-03-22T02:55:40;13.80;;;8.80;;
4244;SDS011;2136;48.502;9.194;2024-03-22T02:58:08;11.00;;;8.67;;
4244;SDS011;2136;48.502;9.194;2024-03-22T03:00:35;10.90;;;8.67;;
4244;SDS011;2136;48.502;9.194;2024-03-22T03:03:03;16.13;;;9.97;;
4244;SDS011;2136;48.502;9.194;2024-03-22T03:05:29;11.30;;;9.20;;
4244;SDS011;2136;48.502;9.194;2024-03-22T03:07:56;12.40;;;8.10;;
4244;SDS011;2136;48.502;9.194;2024-03-22T03:10:22;9.57;;;8.10;;
4244;SDS011;2136;48.502;9.194;2024-03-22T03:12:49;10.70;;;7.57;;
4244;SDS011;2136;48.502;9.194;2024-03-22T03:15:17;11.77;;;8.77;;
4244;SDS011;2136;48.502;9.194;2024-03-22T03:17:44;14.93;;;9.40;;
4244;SDS011;2136;48.502;9.194;2024-03-22T03:20:10;11.10;;;9.10;;
4244;SDS011;2136;48.502;9.194;2024-03-22T03:22:38;13.13;;;10.20;;
4244;SDS011;2136;48.502;9.194;2024-03-22T03:25:04;14.73;;;9.87;;
4244;SDS011;2136;48.502;9.194;2024-03-22T03:27:32;16.90;;;10.37;;
4244;SDS011;2136;48.502;9.194;2024-03-22T03:29:58;13.30;;;10.97;;
4244;SDS011;2136;48.502;9.194;2024-03-22T03:32:26;13.33;;;9.60;;
4244;SDS011;2136;48.502;9.194;2024-03-22T03:34:52;19.37;;;11.47;;
4244;SDS011;2136;48.502;9.194;2024-03-22T03:37:18;21.20;;;10.20;;
4244;SDS011;2136;48.502;9.194;2024-03-22T03:39:44;10.90;;;8.90;;
4244;SDS011;2136;48.502;9.194;2024-03-22T03:42:11;14.10;;;9.67;;
4244;SDS011;2136;48.502;9.194;2024-03-22T03:44:37;14.37;;;9.70;;
4244;SDS011;2136;48.502;9.194;2024-03-22T03:47:04;12.17;;;9.70;;
4244;SDS011;2136;48.502;9.194;2024-03-22T03:49:31;12.40;;;9.50;;
4244;SDS011;2136;48.502;9.194;2024-03-22T03:51:58;11.67;;;9.10;;
4244;SDS011;2136;48.502;9.194;2024-03-22T03:54:24;10.10;;;7.93;;
4244;SDS011;2136;48.502;9.194;2024-03-22T03:56:51;9.97;;;7.97;;
4244;SDS011;2136;48.502;9.194;2024-03-22T03:59:17;14.47;;;9.40;;
4244;SDS011;2136;48.502;9.194;2024-03-22T04:01:43;13.17;;;8.50;;
4244;SDS011;2136;48.502;9.194;2024-03-22T04:04:09;11.70;;;8.63;;
4244;SDS011;2136;48.502;9.194;2024-03-22T04:06:37;9.57;;;7.53;;
4244;SDS011;2136;48.502;9.194;2024-03-22T04:09:03;13.75;;;9.40;;
4244;SDS011;2136;48.502;9.194;2024-03-22T04:11:31;15.10;;;8.60;;
4244;SDS011;2136;48.502;9.194;2024-03-22T04:13:57;10.53;;;9.27;;
4244;SDS011;2136;48.502;9.194;2024-03-22T04:16:23;10.63;;;7.90;;
4244;SDS011;2136;48.502;9.194;2024-03-22T04:18:49;15.20;;;10.07;;
4244;SDS011;2136;48.502;9.194;2024-03-22T04:21:17;17.20;;;9.80;;
4244;SDS011;2136;48.502;9.194;2024-03-22T04:23:44;20.33;;;9.80;;
4244;SDS011;2136;48.502;9.194;2024-03-22T04:26:11;11.10;;;9.43;;
4244;SDS011;2136;48.502;9.194;2024-03-22T04:28:37;14.60;;;9.43;;
4244;SDS011;2136;48.502;9.194;2024-03-22T04:31:04;16.47;;;9.70;;
4244;SDS011;2136;48.502;9.194;2024-03-22T04:33:33;14.20;;;9.60;;
4244;SDS011;2136;48.502;9.194;2024-03-22T04:36:00;15.50;;;11.20;;
4244;SDS011;2136;48.502;9.194;2024-03-22T04:38:26;13.33;;;9.63;;
4244;SDS011;2136;48.502;9.194;2024-03-22T04:40:55;14.87;;;9.77;;
4244;SDS011;2136;48.502;9.194;2024-03-22T04:43:23;14.73;;;10.40;;
4244;SDS011;2136;48.502;9.194;2024-03-22T04:45:50;15.50;;;10.07;;
4244;SDS011;2136;48.502;9.194;2024-03-22T04:48:18;13.80;;;9.80;;
4244;SDS011;2136;48.502;9.194;2024-03-22T04:50:45;14.37;;;9.47;;
4244;SDS011;2136;48.502;9.194;2024-03-22T04:53:15;13.87;;;9.63;;
4244;SDS011;2136;48.502;9.194;2024-03-22T04:55:42;12.53;;;9.27;;
4244;SDS011;2136;48.502;9.194;2024-03-22T04:58:12;12.63;;;9.37;;
4244;SDS011;2136;48.502;9.194;2024-03-22T05:00:38;16.00;;;9.57;;
4244;SDS011;2136;48.502;9.194;2024-03-22T05:03:08;13.07;;;10.23;;
4244;SDS011;2136;48.502;9.194;2024-03-22T05:05:34;13.07;;;10.47;;
4244;SDS011;2136;48.502;9.194;2024-03-22T05:08:01;12.27;;;9.60;;
4244;SDS011;2136;48.502;9.194;2024-03-22T05:10:27;12.50;;;8.83;;
4244;SDS011;2136;48.502;9.194;2024-03-22T05:12:54;11.90;;;9.20;;
4244;SDS011;2136;48.502;9.194;2024-03-22T05:15:22;15.50;;;8.97;;
4244;SDS011;2136;48.502;9.194;2024-03-22T05:17:50;17.50;;;9.40;;
4244;SDS011;2136;48.502;9.194;2024-03-22T05:20:16;13.67;;;10.10;;
4244;SDS011;2136;48.502;9.194;2024-03-22T05:22:43;19.13;;;9.63;;
4244;SDS011;2136;48.502;9.194;2024-03-22T05:25:09;13.20;;;10.23;;
4244;SDS011;2136;48.502;9.194;2024-03-22T05:27:36;12.47;;;9.80;;
4244;SDS011;2136;48.502;9.194;2024-03-22T05:30:02;14.87;;;10.20;;
4244;SDS011;2136;48.502;9.194;2024-03-22T05:32:31;15.40;;;10.57;;
4244;SDS011;2136;48.502;9.194;2024-03-22T05:34:57;14.67;;;9.83;;
4244;SDS011;2136;48.502;9.194;2024-03-22T05:37:24;14.37;;;9.87;;
4244;SDS011;2136;48.502;9.194;2024-03-22T05:39:49;14.73;;;9.97;;
4244;SDS011;2136;48.502;9.194;2024-03-22T05:42:16;12.30;;;9.23;;
4244;SDS011;2136;48.502;9.194;2024-03-22T05:44:42;16.03;;;10.60;;
4244;SDS011;2136;48.502;9.194;2024-03-22T05:47:10;13.80;;;10.90;;
4244;SDS011;2136;48.502;9.194;2024-03-22T05:49:37;15.17;;;9.57;;
4244;SDS011;2136;48.502;9.194;2024-03-22T05:52:04;14.73;;;10.90;;
4244;SDS011;2136;48.502;9.194;2024-03-22T05:54:30;18.70;;;10.80;;
4244;SDS011;2136;48.502;9.194;2024-03-22T05:56:56;19.43;;;11.07;;
4244;SDS011;2136;48.502;9.194;2024-03-22T05:59:22;16.57;;;10.43;;
4244;SDS011;2136;48.502;9.194;2024-03-22T06:01:49;13.77;;;9.90;;
4244;SDS011;2136;48.502;9.194;2024-03-22T06:04:15;10.70;;;9.03;;
4244;SDS011;2136;48.502;9.194;2024-03-22T06:06:43;12.67;;;9.50;;
4244;SDS011;2136;48.502;9.194;2024-03-22T06:09:09;17.17;;;11.30;;
4244;SDS011;2136;48.502;9.194;2024-03-22T06:11:38;18.03;;;11.50;;
4244;SDS011;2136;48.502;9.194;2024-03-22T06:14:04;16.77;;;11.17;;
4244;SDS011;2136;48.502;9.194;2024-03-22T06:16:31;14.17;;;8.90;;
4244;SDS011;2136;48.502;9.194;2024-03-22T06:18:57;19.73;;;12.17;;
4244;SDS011;2136;48.502;9.194;2024-03-22T06:21:24;13.03;;;10.03;;
4244;SDS011;2136;48.502;9.194;2024-03-22T06:23:52;15.17;;;10.17;;
4244;SDS011;2136;48.502;9.194;2024-03-22T06:26:18;19.33;;;12.23;;
4244;SDS011;2136;48.502;9.194;2024-03-22T06:28:44;17.13;;;10.87;;
4244;SDS011;2136;48.502;9.194;2024-03-22T06:31:11;16.77;;;9.17;;
4244;SDS011;2136;48.502;9.194;2024-03-22T06:33:37;17.07;;;10.60;;
4244;SDS011;2136;48.502;9.194;2024-03-22T06:36:04;18.50;;;11.30;;
4244;SDS011;2136;48.502;9.194;2024-03-22T06:38:30;21.90;;;9.57;;
4244;SDS011;2136;48.502;9.194;2024-03-22T06:40:58;12.63;;;8.73;;
4244;SDS011;2136;48.502;9.194;2024-03-22T06:43:24;13.20;;;9.40;;
4244;SDS011;2136;48.502;9.194;2024-03-22T06:45:51;19.97;;;9.73;;
4244;SDS011;2136;48.502;9.194;2024-03-22T06:48:17;14.13;;;9.47;;
4244;SDS011;2136;48.502;9.194;2024-03-22T06:50:44;13.53;;;9.10;;
4244;SDS011;2136;48.502;9.194;2024-03-22T06:53:10;15.17;;;9.73;;
4244;SDS011;2136;48.502;9.194;2024-03-22T06:55:37;13.00;;;9.70;;
4244;SDS011;2136;48.502;9.194;2024-03-22T06:58:04;11.77;;;9.20;;
4244;SDS011;2136;48.502;9.194;2024-03-22T07:00:31;11.43;;;9.07;;
4244;SDS011;2136;48.502;9.194;2024-03-22T07:02:59;19.07;;;10.43;;
4244;SDS011;2136;48.502;9.194;2024-03-22T07:05:27;13.63;;;10.10;;
4244;SDS011;2136;48.502;9.194;2024-03-22T07:07:53;17.53;;;10.90;;
4244;SDS011;2136;48.502;9.194;2024-03-22T07:10:22;13.63;;;9.90;;
4244;SDS011;2136;48.502;9.194;2024-03-22T07:12:52;10.27;;;9.13;;
4244;SDS011;2136;48.502;9.194;2024-03-22T07:15:20;12.43;;;9.07;;
4244;SDS011;2136;48.502;9.194;2024-03-22T07:17:47;13.03;;;9.53;;
4244;SDS011;2136;48.502;9.194;2024-03-22T07:20:14;11.10;;;8.17;;
4244;SDS011;2136;48.502;9.194;2024-03-22T07:22:39;12.27;;;9.40;;
4244;SDS011;2136;48.502;9.194;2024-03-22T07:25:07;16.87;;;8.47;;
4244;SDS011;2136;48.502;9.194;2024-03-22T07:27:34;11.50;;;8.57;;
4244;SDS011;2136;48.502;9.194;2024-03-22T07:30:01;15.70;;;9.03;;
4244;SDS011;2136;48.502;9.194;2024-03-22T07:32:29;12.30;;;7.90;;
4244;SDS011;2136;48.502;9.194;2024-03-22T07:34:55;12.77;;;9.83;;
4244;SDS011;2136;48.502;9.194;2024-03-22T07:37:21;11.07;;;8.53;;
4244;SDS011;2136;48.502;9.194;2024-03-22T07:39:48;18.53;;;10.30;;
4244;SDS011;2136;48.502;9.194;2024-03-22T07:42:14;10.50;;;8.50;;
4244;SDS011;2136;48.502;9.194;2024-03-22T07:44:41;12.73;;;10.07;;
4244;SDS011;2136;48.502;9.194;2024-03-22T07:47:07;13.23;;;9.80;;
4244;SDS011;2136;48.502;9.194;2024-03-22T07:49:35;14.23;;;8.60;;
4244;SDS011;2136;48.502;9.194;2024-03-22T07:52:02;15.83;;;9.33;;
4244;SDS011;2136;48.502;9.194;2024-03-22T07:54:29;11.80;;;9.40;;
4244;SDS011;2136;48.502;9.194;2024-03-22T07:56:55;16.50;;;9.33;;
4244;SDS011;2136;48.502;9.194;2024-03-22T07:59:21;15.67;;;9.73;;
4244;SDS011;2136;48.502;9.194;2024-03-22T08:01:47;16.50;;;9.07;;
4244;SDS011;2136;48.502;9.194;2024-03-22T08:04:14;14.23;;;8.90;;
4244;SDS011;2136;48.502;9.194;2024-03-22T08:06:41;13.70;;;8.53;;
4244;SDS011;2136;48.502;9.194;2024-03-22T08:09:08;12.90;;;9.27;;
4244;SDS011;2136;48.502;9.194;2024-03-22T08:11:34;12.00;;;9.23;;
4244;SDS011;2136;48.502;9.194;2024-03-22T08:14:01;22.40;;;9.23;;
4244;SDS011;2136;48.502;9.194;2024-03-22T08:16:28;15.83;;;8.80;;
4244;SDS011;2136;48.502;9.194;2024-03-22T08:18:55;13.90;;;8.97;;
4244;SDS011;2136;48.502;9.194;2024-03-22T08:21:21;15.27;;;8.97;;
4244;SDS011;2136;48.502;9.194;2024-03-22T08:23:50;11.90;;;8.13;;
4244;SDS011;2136;48.502;9.194;2024-03-22T08:26:16;15.73;;;9.00;;
4244;SDS011;2136;48.502;9.194;2024-03-22T08:28:43;13.20;;;8.40;;
4244;SDS011;2136;48.502;9.194;2024-03-22T08:31:10;10.23;;;7.40;;
4244;SDS011;2136;48.502;9.194;2024-03-22T08:33:37;11.50;;;7.33;;
4244;SDS011;2136;48.502;9.194;2024-03-22T08:36:03;12.53;;;7.80;;
4244;SDS011;2136;48.502;9.194;2024-03-22T08:38:29;17.33;;;8.10;;
4244;SDS011;2136;48.502;9.194;2024-03-22T08:40:57;10.55;;;7.50;;
4244;SDS011;2136;48.502;9.194;2024-03-22T08:43:23;11.63;;;8.23;;
4244;SDS011;2136;48.502;9.194;2024-03-22T08:45:50;9.03;;;6.97;;
4244;SDS011;2136;48.502;9.194;2024-03-22T08:48:17;10.20;;;6.83;;
4244;SDS011;2136;48.502;9.194;2024-03-22T08:50:44;7.90;;;6.53;;
4244;SDS011;2136;48.502;9.194;2024-03-22T08:53:11;8.87;;;7.20;;
4244;SDS011;2136;48.502;9.194;2024-03-22T08:55:36;7.77;;;6.90;;
4244;SDS011;2136;48.502;9.194;2024-03-22T08:58:05;10.90;;;6.30;;
4244;SDS011;2136;48.502;9.194;2024-03-22T09:00:30;8.50;;;7.40;;
4244;SDS011;2136;48.502;9.194;2024-03-22T09:02:57;8.40;;;6.40;;
4244;SDS011;2136;48.502;9.194;2024-03-22T09:05:23;9.63;;;6.30;;
4244;SDS011;2136;48.502;9.194;2024-03-22T09:07:50;12.17;;;6.47;;
4244;SDS011;2136;48.502;9.194;2024-03-22T09:10:19;7.77;;;5.67;;
4244;SDS011;2136;48.502;9.194;2024-03-22T09:12:45;9.90;;;6.93;;
4244;SDS011;2136;48.502;9.194;2024-03-22T09:15:12;9.83;;;6.97;;
4244;SDS011;2136;48.502;9.194;2024-03-22T09:17:39;8.00;;;5.70;;
4244;SDS011;2136;48.502;9.194;2024-03-22T09:20:06;6.90;;;5.93;;
4244;SDS011;2136;48.502;9.194;2024-03-22T09:22:33;9.13;;;5.50;;
4244;SDS011;2136;48.502;9.194;2024-03-22T09:24:59;8.83;;;5.47;;
4244;SDS011;2136;48.502;9.194;2024-03-22T09:27:26;7.30;;;5.80;;
4244;SDS011;2136;48.502;9.194;2024-03-22T09:29:51;7.50;;;5.40;;
4244;SDS011;2136;48.502;9.194;2024-03-22T09:32:20;9.27;;;6.57;;
4244;SDS011;2136;48.502;9.194;2024-03-22T09:34:47;5.60;;;5.10;;
4244;SDS011;2136;48.502;9.194;2024-03-22T09:37:15;7.70;;;5.90;;
4244;SDS011;2136;48.502;9.194;2024-03-22T09:39:41;6.10;;;5.50;;
4244;SDS011;2136;48.502;9.194;2024-03-22T09:42:09;9.63;;;6.10;;
4244;SDS011;2136;48.502;9.194;2024-03-22T09:44:40;9.67;;;5.60;;
4244;SDS011;2136;48.502;9.194;2024-03-22T09:47:14;6.83;;;5.77;;
4244;SDS011;2136;48.502;9.194;2024-03-22T09:49:41;7.37;;;6.33;;
4244;SDS011;2136;48.502;9.194;2024-03-22T09:52:11;9.40;;;6.17;;
4244;SDS011;2136;48.502;9.194;2024-03-22T09:54:39;8.00;;;5.70;;
4244;SDS011;2136;48.502;9.194;2024-03-22T09:57:08;8.17;;;5.63;;
4244;SDS011;2136;48.502;9.194;2024-03-22T09:59:38;11.80;;;6.27;;
4244;SDS011;2136;48.502;9.194;2024-03-22T10:02:05;6.80;;;6.20;;
4244;SDS011;2136;48.502;9.194;2024-03-22T10:04:36;11.53;;;6.33;;
4244;SDS011;2136;48.502;9.194;2024-03-22T10:07:04;6.70;;;6.10;;
4244;SDS011;2136;48.502;9.194;2024-03-22T10:09:30;9.87;;;6.70;;
4244;SDS011;2136;48.502;9.194;2024-03-22T10:11:58;6.30;;;5.60;;
4244;SDS011;2136;48.502;9.194;2024-03-22T10:14:24;6.43;;;5.80;;
4244;SDS011;2136;48.502;9.194;2024-03-22T10:16:51;6.23;;;5.30;;
4244;SDS011;2136;48.502;9.194;2024-03-22T10:19:18;7.03;;;5.03;;
4244;SDS011;2136;48.502;9.194;2024-03-22T10:21:45;6.87;;;4.73;;
4244;SDS011;2136;48.502;9.194;2024-03-22T10:24:13;6.47;;;4.63;;
4244;SDS011;2136;48.502;9.194;2024-03-22T10:26:40;6.23;;;5.00;;
4244;SDS011;2136;48.502;9.194;2024-03-22T10:29:06;4.43;;;4.03;;
4244;SDS011;2136;48.502;9.194;2024-03-22T10:31:34;5.47;;;4.00;;
4244;SDS011;2136;48.502;9.194;2024-03-22T10:34:00;7.77;;;5.00;;
4244;SDS011;2136;48.502;9.194;2024-03-22T10:36:29;6.20;;;4.63;;
4244;SDS011;2136;48.502;9.194;2024-03-22T10:38:58;6.77;;;4.57;;
4244;SDS011;2136;48.502;9.194;2024-03-22T10:41:28;6.97;;;4.10;;
4244;SDS011;2136;48.502;9.194;2024-03-22T10:43:57;9.77;;;4.97;;
4244;SDS011;2136;48.502;9.194;2024-03-22T10:46:27;6.53;;;5.37;;
4244;SDS011;2136;48.502;9.194;2024-03-22T10:48:55;6.53;;;4.33;;
4244;SDS011;2136;48.502;9.194;2024-03-22T10:51:23;6.40;;;5.60;;
4244;SDS011;2136;48.502;9.194;2024-03-22T10:53:51;7.30;;;5.20;;
4244;SDS011;2136;48.502;9.194;2024-03-22T10:56:21;5.60;;;4.27;;
4244;SDS011;2136;48.502;9.194;2024-03-22T10:58:50;6.50;;;4.43;;
4244;SDS011;2136;48.502;9.194;2024-03-22T11:01:24;8.33;;;4.60;;
4244;SDS011;2136;48.502;9.194;2024-03-22T11:03:50;4.70;;;4.30;;
4244;SDS011;2136;48.502;9.194;2024-03-22T11:06:18;5.87;;;4.13;;
4244;SDS011;2136;48.502;9.194;2024-03-22T11:08:49;4.53;;;4.13;;
4244;SDS011;2136;48.502;9.194;2024-03-22T11:11:17;3.87;;;3.20;;
4244;SDS011;2136;48.502;9.194;2024-03-22T11:13:46;3.50;;;3.20;;
4244;SDS011;2136;48.502;9.194;2024-03-22T11:16:16;4.03;;;2.97;;
4244;SDS011;2136;48.502;9.194;2024-03-22T11:18:42;3.30;;;2.97;;
4244;SDS011;2136;48.502;9.194;2024-03-22T11:21:09;4.87;;;3.20;;
4244;SDS011;2136;48.502;9.194;2024-03-22T11:23:36;3.53;;;3.20;;
4244;SDS011;2136;48.502;9.194;2024-03-22T11:26:03;4.23;;;3.13;;
4244;SDS011;2136;48.502;9.194;2024-03-22T11:28:30;4.18;;;3.60;;
4244;SDS011;2136;48.502;9.194;2024-03-22T11:30:57;3.77;;;2.93;;
4244;SDS011;2136;48.502;9.194;2024-03-22T11:33:25;4.43;;;3.40;;
4244;SDS011;2136;48.502;9.194;2024-03-22T11:35:52;5.23;;;3.10;;
4244;SDS011;2136;48.502;9.194;2024-03-22T11:38:19;4.30;;;3.03;;
4244;SDS011;2136;48.502;9.194;2024-03-22T11:40:46;7.17;;;3.60;;
4244;SDS011;2136;48.502;9.194;2024-03-22T11:43:13;4.83;;;3.30;;
4244;SDS011;2136;48.502;9.194;2024-03-22T11:45:42;5.10;;;3.43;;
4244;SDS011;2136;48.502;9.194;2024-03-22T11:48:08;4.07;;;3.00;;
4244;SDS011;2136;48.502;9.194;2024-03-22T11:50:38;4.77;;;3.63;;
4244;SDS011;2136;48.502;9.194;2024-03-22T11:53:04;3.53;;;3.23;;
4244;SDS011;2136;48.502;9.194;2024-03-22T11:55:32;5.40;;;3.40;;
4244;SDS011;2136;48.502;9.194;2024-03-22T11:58:01;7.83;;;3.97;;
4244;SDS011;2136;48.502;9.194;2024-03-22T12:00:28;5.13;;;3.90;;
4244;SDS011;2136;48.502;9.194;2024-03-22T12:02:55;10.43;;;4.03;;
4244;SDS011;2136;48.502;9.194;2024-03-22T12:05:22;4.90;;;3.50;;
4244;SDS011;2136;48.502;9.194;2024-03-22T12:07:52;3.87;;;3.00;;
4244;SDS011;2136;48.502;9.194;2024-03-22T12:10:19;6.10;;;3.30;;
4244;SDS011;2136;48.502;9.194;2024-03-22T12:12:45;4.40;;;2.53;;
4244;SDS011;2136;48.502;9.194;2024-03-22T12:15:12;4.50;;;3.10;;
4244;SDS011;2136;48.502;9.194;2024-03-22T12:17:38;5.00;;;3.30;;
4244;SDS011;2136;48.502;9.194;2024-03-22T12:20:08;3.80;;;3.50;;
4244;SDS011;2136;48.502;9.194;2024-03-22T12:22:35;6.30;;;2.93;;
4244;SDS011;2136;48.502;9.194;2024-03-22T12:25:04;6.53;;;3.40;;
4244;SDS011;2136;48.502;9.194;2024-03-22T12:27:31;4.60;;;3.33;;
4244;SDS011;2136;48.502;9.194;2024-03-22T12:29:57;2.90;;;2.70;;
4244;SDS011;2136;48.502;9.194;2024-03-22T12:32:24;3.60;;;2.80;;
4244;SDS011;2136;48.502;9.194;2024-03-22T12:34:51;3.13;;;2.30;;
4244;SDS011;2136;48.502;9.194;2024-03-22T12:37:17;2.87;;;2.60;;
4244;SDS011;2136;48.502;9.194;2024-03-22T12:39:44;3.57;;;3.03;;
4244;SDS011;2136;48.502;9.194;2024-03-22T12:42:11;3.30;;;1.90;;
4244;SDS011;2136;48.502;9.194;2024-03-22T12:44:38;3.53;;;2.10;;
4244;SDS011;2136;48.502;9.194;2024-03-22T12:47:04;2.70;;;2.50;;
4244;SDS011;2136;48.502;9.194;2024-03-22T12:49:31;2.77;;;2.43;;
4244;SDS011;2136;48.502;9.194;2024-03-22T12:51:57;2.80;;;2.20;;
4244;SDS011;2136;48.502;9.194;2024-03-22T12:54:24;3.00;;;2.17;;
4244;SDS011;2136;48.502;9.194;2024-03-22T12:56:50;5.50;;;2.30;;
4244;SDS011;2136;48.502;9.194;2024-03-22T12:59:18;3.27;;;2.30;;
4244;SDS011;2136;48.502;9.194;2024-03-22T13:01:44;2.20;;;2.00;;
4244;SDS011;2136;48.502;9.194;2024-03-22T13:04:11;2.23;;;1.90;;
4244;SDS011;2136;48.502;9.194;2024-03-22T13:06:37;2.50;;;2.30;;
4244;SDS011;2136;48.502;9.194;2024-03-22T13:09:03;4.40;;;2.77;;
4244;SDS011;2136;48.502;9.194;2024-03-22T13:11:29;2.80;;;2.20;;
4244;SDS011;2136;48.502;9.194;2024-03-22T13:13:57;3.27;;;2.50;;
4244;SDS011;2136;48.502;9.194;2024-03-22T13:16:25;3.27;;;2.63;;
4244;SDS011;2136;48.502;9.194;2024-03-22T13:18:52;2.47;;;2.20;;
4244;SDS011;2136;48.502;9.194;2024-03-22T13:21:18;2.60;;;2.40;;
4244;SDS011;2136;48.502;9.194;2024-03-22T13:23:45;2.87;;;2.20;;
4244;SDS011;2136;48.502;9.194;2024-03-22T13:26:11;3.57;;;2.10;;
4244;SDS011;2136;48.502;9.194;2024-03-22T13:28:38;3.37;;;2.07;;
4244;SDS011;2136;48.502;9.194;2024-03-22T13:31:04;3.30;;;2.07;;
4244;SDS011;2136;48.502;9.194;2024-03-22T13:33:36;4.10;;;1.90;;
4244;SDS011;2136;48.502;9.194;2024-03-22T13:36:02;4.60;;;1.47;;
4244;SDS011;2136;48.502;9.194;2024-03-22T13:38:29;4.77;;;2.40;;
4244;SDS011;2136;48.502;9.194;2024-03-22T13:40:56;8.90;;;1.90;;
4244;SDS011;2136;48.502;9.194;2024-03-22T13:43:25;4.67;;;2.10;;
4244;SDS011;2136;48.502;9.194;2024-03-22T13:45:52;4.73;;;1.40;;
4244;SDS011;2136;48.502;9.194;2024-03-22T13:48:20;1.50;;;1.40;;
4244;SDS011;2136;48.502;9.194;2024-03-22T13:50:50;1.60;;;1.50;;
4244;SDS011;2136;48.502;9.194;2024-03-22T13:53:18;1.30;;;1.20;;
4244;SDS011;2136;48.502;9.194;2024-03-22T13:55:44;1.00;;;1.00;;
4244;SDS011;2136;48.502;9.194;2024-03-22T13:58:11;1.10;;;0.97;;
4244;SDS011;2136;48.502;9.194;2024-03-22T14:00:37;1.50;;;1.40;;
4244;SDS011;2136;48.502;9.194;2024-03-22T14:03:05;1.37;;;1.10;;
4244;SDS011;2136;48.502;9.194;2024-03-22T14:05:31;1.93;;;1.50;;
4244;SDS011;2136;48.502;9.194;2024-03-22T14:07:59;1.93;;;1.50;;
4244;SDS011;2136;48.502;9.194;2024-03-22T14:10:25;1.40;;;1.30;;
4244;SDS011;2136;48.502;9.194;2024-03-22T14:12:54;1.20;;;1.10;;
4244;SDS011;2136;48.502;9.194;2024-03-22T14:15:21;4.00;;;1.60;;
4244;SDS011;2136;48.502;9.194;2024-03-22T14:17:50;1.17;;;1.10;;
4244;SDS011;2136;48.502;9.194;2024-03-22T14:20:15;2.20;;;1.50;;
4244;SDS011;2136;48.502;9.194;2024-03-22T14:22:42;3.60;;;1.33;;
4244;SDS011;2136;48.502;9.194;2024-03-22T14:25:09;1.00;;;1.00;;
4244;SDS011;2136;48.502;9.194;2024-03-22T14:27:36;2.93;;;1.30;;
4244;SDS011;2136;48.502;9.194;2024-03-22T14:30:04;1.20;;;1.10;;
4244;SDS011;2136;48.502;9.194;2024-03-22T14:32:33;1.10;;;1.10;;
4244;SDS011;2136;48.502;9.194;2024-03-22T14:34:59;1.87;;;1.10;;
4244;SDS011;2136;48.502;9.194;2024-03-22T14:37:26;1.10;;;1.07;;
4244;SDS011;2136;48.502;9.194;2024-03-22T14:39:52;1.53;;;1.30;;
4244;SDS011;2136;48.502;9.194;2024-03-22T14:42:20;4.33;;;1.77;;
4244;SDS011;2136;48.502;9.194;2024-03-22T14:44:46;2.30;;;1.30;;
4244;SDS011;2136;48.502;9.194;2024-03-22T14:47:13;1.67;;;1.40;;
4244;SDS011;2136;48.502;9.194;2024-03-22T14:49:38;1.50;;;1.13;;
4244;SDS011;2136;48.502;9.194;2024-03-22T14:52:06;1.93;;;1.43;;
4244;SDS011;2136;48.502;9.194;2024-03-22T14:54:32;1.40;;;1.30;;
4244;SDS011;2136;48.502;9.194;2024-03-22T14:56:59;1.47;;;1.37;;
4244;SDS011;2136;48.502;9.194;2024-03-22T14:59:28;1.20;;;1.00;;
4244;SDS011;2136;48.502;9.194;2024-03-22T15:01:55;1.33;;;0.93;;
4244;SDS011;2136;48.502;9.194;2024-03-22T15:04:21;1.73;;;1.30;;